sensor_id;sensor_type;location;lat;lon;timestamp;pressure;altitude;pressure_sealevel;temperature;humidity
56831;BME280;42713;42.676;23.352;2023-03-20T00:00:34;95098.34;;;8.62;51.69
56831;BME280;42713;42.676;23.352;2023-03-20T00:03:00;95091.88;;;8.65;51.14
56831;BME280;42713;42.676;23.352;2023-03-20T00:05:27;95092.03;;;8.70;51.04
56831;BME280;42713;42.676;23.352;2023-03-20T00:07:54;95089.41;;;8.70;51.23
56831;BME280;42713;42.676;23.352;2023-03-20T00:10:21;95086.81;;;8.70;50.93
56831;BME280;42713;42.676;23.352;2023-03-20T00:12:48;95092.81;;;8.70;51.04
56831;BME280;42713;42.676;23.352;2023-03-20T00:15:43;95084.41;;;8.68;51.25
56831;BME280;42713;42.676;23.352;2023-03-20T00:18:14;95088.47;;;8.64;51.05
56831;BME280;42713;42.676;23.352;2023-03-20T00:20:43;95090.09;;;8.65;50.83
56831;BME280;42713;42.676;23.352;2023-03-20T00:23:08;95086.53;;;8.60;50.92
56831;BME280;42713;42.676;23.352;2023-03-20T00:25:34;95082.75;;;8.55;51.10
56831;BME280;42713;42.676;23.352;2023-03-20T00:28:01;95085.00;;;8.52;51.13
56831;BME280;42713;42.676;23.352;2023-03-20T00:30:28;95085.44;;;8.49;50.93
56831;BME280;42713;42.676;23.352;2023-03-20T00:32:56;95081.66;;;8.45;51.31
56831;BME280;42713;42.676;23.352;2023-03-20T00:35:24;95081.88;;;8.43;51.37
56831;BME280;42713;42.676;23.352;2023-03-20T00:37:51;95080.06;;;8.44;51.54
56831;BME280;42713;42.676;23.352;2023-03-20T00:40:17;95075.84;;;8.43;51.69
56831;BME280;42713;42.676;23.352;2023-03-20T00:42:46;95071.41;;;8.43;51.77
56831;BME280;42713;42.676;23.352;2023-03-20T00:45:14;95071.66;;;8.41;51.47
56831;BME280;42713;42.676;23.352;2023-03-20T00:47:41;95074.25;;;8.41;51.71
56831;BME280;42713;42.676;23.352;2023-03-20T00:50:15;95067.66;;;8.39;51.72
56831;BME280;42713;42.676;23.352;2023-03-20T00:52:41;95073.31;;;8.36;51.69
56831;BME280;42713;42.676;23.352;2023-03-20T00:55:06;95078.63;;;8.29;52.00
56831;BME280;42713;42.676;23.352;2023-03-20T00:57:42;95071.09;;;8.21;51.70
56831;BME280;42713;42.676;23.352;2023-03-20T01:00:42;95067.09;;;8.18;52.25
56831;BME280;42713;42.676;23.352;2023-03-20T01:03:22;95061.31;;;8.16;52.08
56831;BME280;42713;42.676;23.352;2023-03-20T01:05:49;95065.28;;;8.19;51.94
56831;BME280;42713;42.676;23.352;2023-03-20T01:08:18;95058.03;;;8.21;51.98
56831;BME280;42713;42.676;23.352;2023-03-20T01:10:45;95055.06;;;8.17;52.06
56831;BME280;42713;42.676;23.352;2023-03-20T01:13:25;95053.28;;;8.18;52.11
56831;BME280;42713;42.676;23.352;2023-03-20T01:15:52;95041.78;;;8.19;52.07
56831;BME280;42713;42.676;23.352;2023-03-20T01:18:19;95055.44;;;8.21;51.58
56831;BME280;42713;42.676;23.352;2023-03-20T01:20:46;95044.06;;;8.15;51.91
56831;BME280;42713;42.676;23.352;2023-03-20T01:23:12;95039.78;;;8.02;51.80
56831;BME280;42713;42.676;23.352;2023-03-20T01:25:38;95043.41;;;8.01;52.09
56831;BME280;42713;42.676;23.352;2023-03-20T01:28:14;95050.22;;;8.02;52.40
56831;BME280;42713;42.676;23.352;2023-03-20T01:30:40;95046.38;;;8.05;52.05
56831;BME280;42713;42.676;23.352;2023-03-20T01:33:13;95043.03;;;7.98;52.27
56831;BME280;42713;42.676;23.352;2023-03-20T01:35:39;95045.44;;;7.99;52.64
56831;BME280;42713;42.676;23.352;2023-03-20T01:43:30;95049.94;;;7.92;53.27
56831;BME280;42713;42.676;23.352;2023-03-20T01:46:21;95056.38;;;7.89;53.13
56831;BME280;42713;42.676;23.352;2023-03-20T01:51:27;95065.50;;;7.80;53.84
56831;BME280;42713;42.676;23.352;2023-03-20T01:53:57;95065.72;;;7.78;53.42
56831;BME280;42713;42.676;23.352;2023-03-20T01:56:23;95063.38;;;7.70;54.00
56831;BME280;42713;42.676;23.352;2023-03-20T01:59:02;95056.06;;;7.60;53.97
56831;BME280;42713;42.676;23.352;2023-03-20T02:01:30;95061.50;;;7.59;54.54
56831;BME280;42713;42.676;23.352;2023-03-20T02:03:55;95056.47;;;7.57;54.25
56831;BME280;42713;42.676;23.352;2023-03-20T02:06:23;95060.31;;;7.55;54.64
56831;BME280;42713;42.676;23.352;2023-03-20T02:08:51;95057.53;;;7.50;54.68
56831;BME280;42713;42.676;23.352;2023-03-20T02:11:20;95053.13;;;7.50;54.66
56831;BME280;42713;42.676;23.352;2023-03-20T02:13:52;95050.75;;;7.48;54.34
56831;BME280;42713;42.676;23.352;2023-03-20T02:16:18;95047.94;;;7.50;54.49
56831;BME280;42713;42.676;23.352;2023-03-20T02:18:46;95048.72;;;7.51;54.25
56831;BME280;42713;42.676;23.352;2023-03-20T02:21:45;95044.31;;;7.51;54.27
56831;BME280;42713;42.676;23.352;2023-03-20T02:32:25;95058.78;;;7.22;54.60
56831;BME280;42713;42.676;23.352;2023-03-20T02:43:20;95054.75;;;6.94;57.09
56831;BME280;42713;42.676;23.352;2023-03-20T02:48:49;95043.59;;;6.87;57.19
56831;BME280;42713;42.676;23.352;2023-03-20T02:51:34;95042.59;;;6.88;57.26
56831;BME280;42713;42.676;23.352;2023-03-20T02:56:32;95047.38;;;6.91;56.83
56831;BME280;42713;42.676;23.352;2023-03-20T03:01:35;95044.59;;;6.85;56.95
56831;BME280;42713;42.676;23.352;2023-03-20T03:04:08;95037.81;;;6.84;56.50
56831;BME280;42713;42.676;23.352;2023-03-20T03:06:37;95040.25;;;6.79;56.82
56831;BME280;42713;42.676;23.352;2023-03-20T03:09:18;95037.44;;;6.81;56.68
56831;BME280;42713;42.676;23.352;2023-03-20T03:11:49;95046.03;;;6.81;57.01
56831;BME280;42713;42.676;23.352;2023-03-20T03:14:35;95044.06;;;6.77;56.22
56831;BME280;42713;42.676;23.352;2023-03-20T03:17:03;95038.28;;;6.75;56.55
56831;BME280;42713;42.676;23.352;2023-03-20T03:19:31;95036.09;;;6.72;56.79
56831;BME280;42713;42.676;23.352;2023-03-20T03:21:58;95037.47;;;6.74;57.52
56831;BME280;42713;42.676;23.352;2023-03-20T03:24:32;95037.28;;;6.76;56.78
56831;BME280;42713;42.676;23.352;2023-03-20T03:27:02;95032.25;;;6.74;57.48
56831;BME280;42713;42.676;23.352;2023-03-20T03:29:31;95044.13;;;6.70;57.94
56831;BME280;42713;42.676;23.352;2023-03-20T03:32:00;95036.72;;;6.67;57.56
56831;BME280;42713;42.676;23.352;2023-03-20T03:34:27;95040.31;;;6.66;57.35
56831;BME280;42713;42.676;23.352;2023-03-20T03:37:02;95045.91;;;6.69;57.32
56831;BME280;42713;42.676;23.352;2023-03-20T03:47:24;95044.44;;;6.48;58.46
56831;BME280;42713;42.676;23.352;2023-03-20T03:50:07;95045.66;;;6.46;58.25
56831;BME280;42713;42.676;23.352;2023-03-20T03:52:35;95037.84;;;6.46;57.80
56831;BME280;42713;42.676;23.352;2023-03-20T03:55:04;95048.06;;;6.41;57.38
56831;BME280;42713;42.676;23.352;2023-03-20T03:57:41;95042.47;;;6.37;57.78
56831;BME280;42713;42.676;23.352;2023-03-20T04:00:10;95046.06;;;6.36;57.36
56831;BME280;42713;42.676;23.352;2023-03-20T04:02:37;95039.28;;;6.35;58.23
56831;BME280;42713;42.676;23.352;2023-03-20T04:05:04;95037.50;;;6.29;58.39
56831;BME280;42713;42.676;23.352;2023-03-20T04:07:31;95029.34;;;6.25;57.83
56831;BME280;42713;42.676;23.352;2023-03-20T04:09:57;95034.72;;;6.23;58.63
56831;BME280;42713;42.676;23.352;2023-03-20T04:12:40;95033.34;;;6.21;58.92
56831;BME280;42713;42.676;23.352;2023-03-20T04:15:06;95020.56;;;6.13;58.79
56831;BME280;42713;42.676;23.352;2023-03-20T04:17:32;95027.00;;;6.10;58.86
56831;BME280;42713;42.676;23.352;2023-03-20T04:19:58;95033.19;;;6.09;58.82
56831;BME280;42713;42.676;23.352;2023-03-20T04:22:24;95031.81;;;6.06;58.34
56831;BME280;42713;42.676;23.352;2023-03-20T04:24:49;95024.00;;;6.06;58.81
56831;BME280;42713;42.676;23.352;2023-03-20T04:27:15;95015.78;;;6.03;58.80
56831;BME280;42713;42.676;23.352;2023-03-20T04:29:42;95021.22;;;6.01;58.89
56831;BME280;42713;42.676;23.352;2023-03-20T04:32:07;95023.22;;;5.99;58.90
56831;BME280;42713;42.676;23.352;2023-03-20T04:34:33;95025.63;;;6.01;58.96
56831;BME280;42713;42.676;23.352;2023-03-20T04:36:58;95024.03;;;6.00;59.40
56831;BME280;42713;42.676;23.352;2023-03-20T04:39:26;95026.22;;;5.96;59.83
56831;BME280;42713;42.676;23.352;2023-03-20T04:41:51;95036.78;;;5.95;59.29
56831;BME280;42713;42.676;23.352;2023-03-20T04:44:17;95027.22;;;5.88;59.00
56831;BME280;42713;42.676;23.352;2023-03-20T04:46:42;95032.84;;;5.79;59.98
56831;BME280;42713;42.676;23.352;2023-03-20T04:49:08;95041.84;;;5.83;59.64
56831;BME280;42713;42.676;23.352;2023-03-20T04:51:33;95044.81;;;5.86;59.59
56831;BME280;42713;42.676;23.352;2023-03-20T04:53:59;95054.06;;;5.82;58.89
56831;BME280;42713;42.676;23.352;2023-03-20T04:56:24;95055.44;;;5.78;59.40
56831;BME280;42713;42.676;23.352;2023-03-20T04:58:50;95060.25;;;5.74;60.01
56831;BME280;42713;42.676;23.352;2023-03-20T05:01:15;95060.03;;;5.76;59.39
56831;BME280;42713;42.676;23.352;2023-03-20T05:03:41;95057.44;;;5.69;59.59
56831;BME280;42713;42.676;23.352;2023-03-20T05:06:07;95067.47;;;5.59;60.35
56831;BME280;42713;42.676;23.352;2023-03-20T05:08:33;95060.69;;;5.51;60.91
56831;BME280;42713;42.676;23.352;2023-03-20T05:10:59;95067.88;;;5.49;61.74
56831;BME280;42713;42.676;23.352;2023-03-20T05:13:24;95063.91;;;5.53;61.17
56831;BME280;42713;42.676;23.352;2023-03-20T05:15:51;95064.28;;;5.57;61.25
56831;BME280;42713;42.676;23.352;2023-03-20T05:18:17;95063.69;;;5.61;60.50
56831;BME280;42713;42.676;23.352;2023-03-20T05:20:42;95069.28;;;5.65;61.02
56831;BME280;42713;42.676;23.352;2023-03-20T05:23:08;95074.66;;;5.70;60.30
56831;BME280;42713;42.676;23.352;2023-03-20T05:25:33;95075.06;;;5.67;61.06
56831;BME280;42713;42.676;23.352;2023-03-20T05:27:59;95076.63;;;5.68;60.28
56831;BME280;42713;42.676;23.352;2023-03-20T05:30:24;95077.44;;;5.75;60.63
56831;BME280;42713;42.676;23.352;2023-03-20T05:32:51;95078.22;;;5.83;60.13
56831;BME280;42713;42.676;23.352;2023-03-20T05:35:17;95082.81;;;5.87;60.29
56831;BME280;42713;42.676;23.352;2023-03-20T05:37:43;95077.22;;;5.90;59.97
56831;BME280;42713;42.676;23.352;2023-03-20T05:40:11;95088.22;;;5.92;59.20
56831;BME280;42713;42.676;23.352;2023-03-20T05:42:37;95081.22;;;6.00;59.18
56831;BME280;42713;42.676;23.352;2023-03-20T05:45:04;95084.59;;;6.07;59.66
56831;BME280;42713;42.676;23.352;2023-03-20T05:47:29;95081.97;;;6.14;58.91
56831;BME280;42713;42.676;23.352;2023-03-20T05:49:55;95077.16;;;6.17;58.95
56831;BME280;42713;42.676;23.352;2023-03-20T05:52:21;95086.34;;;6.20;58.63
56831;BME280;42713;42.676;23.352;2023-03-20T05:54:47;95085.34;;;6.21;59.56
56831;BME280;42713;42.676;23.352;2023-03-20T05:57:13;95087.53;;;6.31;59.08
56831;BME280;42713;42.676;23.352;2023-03-20T05:59:38;95090.09;;;6.37;58.65
56831;BME280;42713;42.676;23.352;2023-03-20T06:02:03;95085.69;;;6.45;58.80
56831;BME280;42713;42.676;23.352;2023-03-20T06:04:29;95083.25;;;6.50;58.86
56831;BME280;42713;42.676;23.352;2023-03-20T06:06:55;95075.63;;;6.55;59.50
56831;BME280;42713;42.676;23.352;2023-03-20T06:09:21;95077.97;;;6.63;59.54
56831;BME280;42713;42.676;23.352;2023-03-20T06:11:46;95075.97;;;6.65;58.64
56831;BME280;42713;42.676;23.352;2023-03-20T06:14:12;95076.72;;;6.73;58.28
56831;BME280;42713;42.676;23.352;2023-03-20T06:16:37;95072.69;;;6.77;58.42
56831;BME280;42713;42.676;23.352;2023-03-20T06:19:02;95078.31;;;6.80;58.38
56831;BME280;42713;42.676;23.352;2023-03-20T06:21:28;95080.28;;;6.85;58.23
56831;BME280;42713;42.676;23.352;2023-03-20T06:23:53;95084.28;;;6.81;58.11
56831;BME280;42713;42.676;23.352;2023-03-20T06:26:19;95083.25;;;6.89;58.72
56831;BME280;42713;42.676;23.352;2023-03-20T06:28:45;95074.59;;;6.95;57.69
56831;BME280;42713;42.676;23.352;2023-03-20T06:31:11;95076.16;;;7.03;57.51
56831;BME280;42713;42.676;23.352;2023-03-20T06:33:36;95082.09;;;7.10;58.01
56831;BME280;42713;42.676;23.352;2023-03-20T06:36:03;95079.47;;;7.16;58.15
56831;BME280;42713;42.676;23.352;2023-03-20T06:38:29;95090.03;;;7.22;58.45
56831;BME280;42713;42.676;23.352;2023-03-20T06:40:54;95087.59;;;7.27;57.25
56831;BME280;42713;42.676;23.352;2023-03-20T06:43:20;95086.75;;;7.33;57.07
56831;BME280;42713;42.676;23.352;2023-03-20T06:45:45;95084.69;;;7.42;56.93
56831;BME280;42713;42.676;23.352;2023-03-20T06:48:11;95084.63;;;7.48;56.99
56831;BME280;42713;42.676;23.352;2023-03-20T06:50:36;95088.41;;;7.53;56.46
56831;BME280;42713;42.676;23.352;2023-03-20T06:53:02;95080.53;;;7.59;56.72
56831;BME280;42713;42.676;23.352;2023-03-20T06:55:27;95078.66;;;7.67;56.77
56831;BME280;42713;42.676;23.352;2023-03-20T06:57:53;95076.00;;;7.73;56.59
56831;BME280;42713;42.676;23.352;2023-03-20T07:00:19;95075.13;;;7.79;56.56
56831;BME280;42713;42.676;23.352;2023-03-20T07:02:45;95065.06;;;7.83;55.50
56831;BME280;42713;42.676;23.352;2023-03-20T07:05:12;95069.19;;;7.91;55.48
56831;BME280;42713;42.676;23.352;2023-03-20T07:07:38;95077.78;;;7.98;55.71
56831;BME280;42713;42.676;23.352;2023-03-20T07:10:05;95071.44;;;8.06;55.40
56831;BME280;42713;42.676;23.352;2023-03-20T07:12:31;95066.94;;;8.13;54.77
56831;BME280;42713;42.676;23.352;2023-03-20T07:14:57;95067.47;;;8.22;54.83
56831;BME280;42713;42.676;23.352;2023-03-20T07:17:22;95073.25;;;8.24;54.80
56831;BME280;42713;42.676;23.352;2023-03-20T07:19:48;95073.19;;;8.31;54.18
56831;BME280;42713;42.676;23.352;2023-03-20T07:22:22;95059.50;;;8.35;54.16
56831;BME280;42713;42.676;23.352;2023-03-20T07:24:49;95066.19;;;8.43;54.56
56831;BME280;42713;42.676;23.352;2023-03-20T07:27:14;95059.56;;;8.47;54.17
56831;BME280;42713;42.676;23.352;2023-03-20T07:29:40;95064.28;;;8.57;54.41
56831;BME280;42713;42.676;23.352;2023-03-20T07:32:06;95059.75;;;8.64;54.37
56831;BME280;42713;42.676;23.352;2023-03-20T07:34:31;95063.06;;;8.71;53.81
56831;BME280;42713;42.676;23.352;2023-03-20T07:36:56;95065.84;;;8.77;54.12
56831;BME280;42713;42.676;23.352;2023-03-20T07:39:22;95058.34;;;8.80;53.63
56831;BME280;42713;42.676;23.352;2023-03-20T07:41:48;95060.84;;;8.87;53.63
56831;BME280;42713;42.676;23.352;2023-03-20T07:44:13;95058.13;;;8.94;53.63
56831;BME280;42713;42.676;23.352;2023-03-20T07:46:39;95066.47;;;9.02;54.03
56831;BME280;42713;42.676;23.352;2023-03-20T07:49:05;95064.88;;;9.01;53.15
56831;BME280;42713;42.676;23.352;2023-03-20T07:51:31;95071.25;;;9.06;53.03
56831;BME280;42713;42.676;23.352;2023-03-20T07:53:56;95068.75;;;9.11;52.97
56831;BME280;42713;42.676;23.352;2023-03-20T07:56:22;95072.53;;;9.15;52.85
56831;BME280;42713;42.676;23.352;2023-03-20T07:58:47;95073.22;;;9.22;53.11
56831;BME280;42713;42.676;23.352;2023-03-20T08:01:13;95079.13;;;9.29;52.85
56831;BME280;42713;42.676;23.352;2023-03-20T08:03:39;95075.84;;;9.34;52.78
56831;BME280;42713;42.676;23.352;2023-03-20T08:06:05;95067.56;;;9.37;52.83
56831;BME280;42713;42.676;23.352;2023-03-20T08:08:32;95060.72;;;9.36;52.68
56831;BME280;42713;42.676;23.352;2023-03-20T08:10:58;95065.84;;;9.43;52.41
56831;BME280;42713;42.676;23.352;2023-03-20T08:13:23;95062.91;;;9.51;52.70
56831;BME280;42713;42.676;23.352;2023-03-20T08:15:49;95059.38;;;9.57;52.32
56831;BME280;42713;42.676;23.352;2023-03-20T08:18:18;95059.84;;;9.66;52.58
56831;BME280;42713;42.676;23.352;2023-03-20T08:20:44;95058.34;;;9.70;52.58
56831;BME280;42713;42.676;23.352;2023-03-20T08:23:10;95068.50;;;9.78;52.47
56831;BME280;42713;42.676;23.352;2023-03-20T08:25:36;95063.94;;;9.86;52.55
56831;BME280;42713;42.676;23.352;2023-03-20T08:28:02;95059.38;;;9.93;52.26
56831;BME280;42713;42.676;23.352;2023-03-20T08:30:28;95059.50;;;9.98;52.03
56831;BME280;42713;42.676;23.352;2023-03-20T08:32:54;95060.84;;;10.01;51.99
56831;BME280;42713;42.676;23.352;2023-03-20T08:35:20;95066.06;;;10.12;51.70
56831;BME280;42713;42.676;23.352;2023-03-20T08:37:46;95068.53;;;10.19;51.61
56831;BME280;42713;42.676;23.352;2023-03-20T08:40:12;95062.16;;;10.27;51.32
56831;BME280;42713;42.676;23.352;2023-03-20T08:42:37;95056.00;;;10.33;51.62
56831;BME280;42713;42.676;23.352;2023-03-20T08:45:03;95058.50;;;10.40;50.98
56831;BME280;42713;42.676;23.352;2023-03-20T08:47:29;95057.00;;;10.44;51.41
56831;BME280;42713;42.676;23.352;2023-03-20T08:49:54;95060.31;;;10.51;50.94
56831;BME280;42713;42.676;23.352;2023-03-20T08:52:20;95058.34;;;10.58;50.74
56831;BME280;42713;42.676;23.352;2023-03-20T08:54:46;95058.66;;;10.62;49.94
56831;BME280;42713;42.676;23.352;2023-03-20T08:57:11;95053.19;;;10.64;49.65
56831;BME280;42713;42.676;23.352;2023-03-20T08:59:37;95056.16;;;10.67;49.28
56831;BME280;42713;42.676;23.352;2023-03-20T09:02:02;95045.28;;;10.76;49.92
56831;BME280;42713;42.676;23.352;2023-03-20T09:04:28;95050.84;;;10.79;49.32
56831;BME280;42713;42.676;23.352;2023-03-20T09:06:53;95046.25;;;10.86;49.34
56831;BME280;42713;42.676;23.352;2023-03-20T09:09:19;95040.44;;;10.84;49.82
56831;BME280;42713;42.676;23.352;2023-03-20T09:11:50;95038.56;;;10.97;48.96
56831;BME280;42713;42.676;23.352;2023-03-20T09:14:15;95034.69;;;10.99;48.47
56831;BME280;42713;42.676;23.352;2023-03-20T09:16:41;95038.75;;;11.07;48.30
56831;BME280;42713;42.676;23.352;2023-03-20T09:19:06;95038.03;;;11.12;49.20
56831;BME280;42713;42.676;23.352;2023-03-20T09:21:32;95034.38;;;11.13;47.94
56831;BME280;42713;42.676;23.352;2023-03-20T09:23:57;95029.78;;;11.20;48.76
56831;BME280;42713;42.676;23.352;2023-03-20T09:26:22;95030.91;;;11.24;49.51
56831;BME280;42713;42.676;23.352;2023-03-20T09:28:48;95028.44;;;11.34;48.26
56831;BME280;42713;42.676;23.352;2023-03-20T09:31:13;95018.16;;;11.33;47.93
56831;BME280;42713;42.676;23.352;2023-03-20T09:33:39;95020.31;;;11.36;48.17
56831;BME280;42713;42.676;23.352;2023-03-20T09:36:05;95016.56;;;11.49;48.35
56831;BME280;42713;42.676;23.352;2023-03-20T09:38:32;95012.28;;;11.60;48.23
56831;BME280;42713;42.676;23.352;2023-03-20T09:41:00;95013.50;;;11.74;47.39
56831;BME280;42713;42.676;23.352;2023-03-20T09:54:08;94981.00;;;12.20;46.20
56831;BME280;42713;42.676;23.352;2023-03-20T09:56:35;94966.38;;;12.24;46.39
56831;BME280;42713;42.676;23.352;2023-03-20T09:59:03;94969.09;;;12.34;46.12
56831;BME280;42713;42.676;23.352;2023-03-20T10:01:34;94962.94;;;12.51;46.50
56831;BME280;42713;42.676;23.352;2023-03-20T10:04:08;94953.91;;;12.64;45.74
56831;BME280;42713;42.676;23.352;2023-03-20T10:06:35;94950.00;;;12.71;45.39
56831;BME280;42713;42.676;23.352;2023-03-20T10:09:02;94943.78;;;12.77;45.11
56831;BME280;42713;42.676;23.352;2023-03-20T10:14:32;94937.78;;;12.87;44.84
56831;BME280;42713;42.676;23.352;2023-03-20T10:17:39;94937.59;;;12.94;44.60
56831;BME280;42713;42.676;23.352;2023-03-20T10:20:12;94945.56;;;13.10;43.74
56831;BME280;42713;42.676;23.352;2023-03-20T10:22:47;94933.03;;;13.17;44.03
56831;BME280;42713;42.676;23.352;2023-03-20T10:25:30;94930.34;;;13.12;44.33
56831;BME280;42713;42.676;23.352;2023-03-20T10:28:04;94924.59;;;13.20;43.16
56831;BME280;42713;42.676;23.352;2023-03-20T10:33:33;94926.00;;;13.33;43.37
56831;BME280;42713;42.676;23.352;2023-03-20T10:36:07;94912.06;;;13.37;43.69
56831;BME280;42713;42.676;23.352;2023-03-20T10:41:28;94910.94;;;13.61;43.35
56831;BME280;42713;42.676;23.352;2023-03-20T10:43:57;94899.91;;;13.74;43.89
56831;BME280;42713;42.676;23.352;2023-03-20T10:46:29;94902.84;;;13.83;43.01
56831;BME280;42713;42.676;23.352;2023-03-20T10:49:08;94900.81;;;14.00;41.86
56831;BME280;42713;42.676;23.352;2023-03-20T10:51:48;94889.53;;;14.10;41.35
56831;BME280;42713;42.676;23.352;2023-03-20T10:54:37;94890.84;;;14.18;41.27
56831;BME280;42713;42.676;23.352;2023-03-20T10:57:05;94874.25;;;14.23;41.20
56831;BME280;42713;42.676;23.352;2023-03-20T10:59:44;94879.81;;;14.31;40.53
56831;BME280;42713;42.676;23.352;2023-03-20T11:02:13;94877.16;;;14.31;41.20
56831;BME280;42713;42.676;23.352;2023-03-20T11:04:39;94875.84;;;14.44;41.08
56831;BME280;42713;42.676;23.352;2023-03-20T11:09:33;94872.19;;;14.66;39.99
56831;BME280;42713;42.676;23.352;2023-03-20T11:12:01;94870.09;;;14.73;40.03
56831;BME280;42713;42.676;23.352;2023-03-20T11:14:36;94862.72;;;14.86;39.10
56831;BME280;42713;42.676;23.352;2023-03-20T11:17:04;94847.13;;;14.94;39.38
56831;BME280;42713;42.676;23.352;2023-03-20T11:19:38;94845.00;;;15.12;39.17
56831;BME280;42713;42.676;23.352;2023-03-20T11:22:25;94845.75;;;15.23;38.74
56831;BME280;42713;42.676;23.352;2023-03-20T11:25:02;94840.41;;;15.38;38.16
56831;BME280;42713;42.676;23.352;2023-03-20T11:27:31;94837.53;;;15.40;36.46
56831;BME280;42713;42.676;23.352;2023-03-20T11:30:04;94830.06;;;15.57;36.70
56831;BME280;42713;42.676;23.352;2023-03-20T11:32:38;94831.56;;;15.79;37.10
56831;BME280;42713;42.676;23.352;2023-03-20T11:35:13;94823.56;;;16.00;36.05
56831;BME280;42713;42.676;23.352;2023-03-20T11:37:51;94817.41;;;16.10;36.08
56831;BME280;42713;42.676;23.352;2023-03-20T11:40:32;94819.91;;;16.30;35.26
56831;BME280;42713;42.676;23.352;2023-03-20T11:45:44;94814.50;;;16.46;33.90
56831;BME280;42713;42.676;23.352;2023-03-20T11:48:17;94803.81;;;16.56;33.21
56831;BME280;42713;42.676;23.352;2023-03-20T11:51:05;94799.50;;;16.65;32.73
56831;BME280;42713;42.676;23.352;2023-03-20T11:53:35;94789.78;;;16.61;32.90
56831;BME280;42713;42.676;23.352;2023-03-20T11:56:04;94786.78;;;16.73;32.72
56831;BME280;42713;42.676;23.352;2023-03-20T11:58:32;94788.59;;;16.77;32.70
56831;BME280;42713;42.676;23.352;2023-03-20T12:00:58;94786.84;;;16.97;33.31
56831;BME280;42713;42.676;23.352;2023-03-20T12:06:08;94778.56;;;17.28;32.12
56831;BME280;42713;42.676;23.352;2023-03-20T12:08:38;94759.09;;;17.38;31.54
56831;BME280;42713;42.676;23.352;2023-03-20T12:11:23;94764.44;;;17.57;31.45
56831;BME280;42713;42.676;23.352;2023-03-20T12:13:58;94759.41;;;17.74;31.06
56831;BME280;42713;42.676;23.352;2023-03-20T12:16:28;94757.03;;;17.92;30.43
56831;BME280;42713;42.676;23.352;2023-03-20T12:19:03;94747.53;;;17.91;30.43
56831;BME280;42713;42.676;23.352;2023-03-20T12:21:41;94748.97;;;18.02;29.94
56831;BME280;42713;42.676;23.352;2023-03-20T12:24:23;94745.41;;;18.12;29.00
56831;BME280;42713;42.676;23.352;2023-03-20T12:27:28;94737.81;;;18.06;28.82
56831;BME280;42713;42.676;23.352;2023-03-20T12:29:59;94735.47;;;18.18;29.29
56831;BME280;42713;42.676;23.352;2023-03-20T12:32:29;94732.50;;;18.39;29.05
56831;BME280;42713;42.676;23.352;2023-03-20T12:35:03;94741.00;;;18.69;28.10
56831;BME280;42713;42.676;23.352;2023-03-20T12:37:31;94741.81;;;18.83;27.12
56831;BME280;42713;42.676;23.352;2023-03-20T12:39:59;94729.63;;;18.82;25.86
56831;BME280;42713;42.676;23.352;2023-03-20T12:50:40;94717.31;;;19.42;25.50
56831;BME280;42713;42.676;23.352;2023-03-20T13:01:56;94699.47;;;19.93;23.55
56831;BME280;42713;42.676;23.352;2023-03-20T13:07:21;94688.03;;;20.38;22.64
56831;BME280;42713;42.676;23.352;2023-03-20T13:12:41;94681.88;;;21.01;22.28
56831;BME280;42713;42.676;23.352;2023-03-20T13:20:23;94673.31;;;21.56;21.81
56831;BME280;42713;42.676;23.352;2023-03-20T13:25:46;94662.09;;;21.68;20.94
56831;BME280;42713;42.676;23.352;2023-03-20T13:36:11;94647.78;;;22.94;20.62
56831;BME280;42713;42.676;23.352;2023-03-20T13:38:45;94650.94;;;23.17;20.81
56831;BME280;42713;42.676;23.352;2023-03-20T13:41:12;94647.06;;;23.36;19.99
56831;BME280;42713;42.676;23.352;2023-03-20T13:43:51;94638.13;;;23.53;20.14
56831;BME280;42713;42.676;23.352;2023-03-20T13:46:23;94637.41;;;23.65;19.98
56831;BME280;42713;42.676;23.352;2023-03-20T13:48:50;94641.19;;;23.85;19.58
56831;BME280;42713;42.676;23.352;2023-03-20T13:51:26;94631.22;;;24.07;19.58
56831;BME280;42713;42.676;23.352;2023-03-20T13:59:34;94626.97;;;24.06;19.42
56831;BME280;42713;42.676;23.352;2023-03-20T14:04:50;94622.03;;;23.96;19.36
56831;BME280;42713;42.676;23.352;2023-03-20T14:07:33;94622.50;;;23.98;19.53
56831;BME280;42713;42.676;23.352;2023-03-20T14:13:08;94608.56;;;23.71;18.95
56831;BME280;42713;42.676;23.352;2023-03-20T14:15:37;94605.38;;;23.77;19.17
56831;BME280;42713;42.676;23.352;2023-03-20T14:18:13;94604.91;;;24.09;19.17
56831;BME280;42713;42.676;23.352;2023-03-20T14:20:40;94600.16;;;24.27;19.19
56831;BME280;42713;42.676;23.352;2023-03-20T14:23:16;94591.69;;;24.50;18.86
56831;BME280;42713;42.676;23.352;2023-03-20T14:25:42;94594.72;;;24.61;18.48
56831;BME280;42713;42.676;23.352;2023-03-20T14:30:42;94588.00;;;24.67;18.04
56831;BME280;42713;42.676;23.352;2023-03-20T14:39:04;94586.69;;;24.85;17.91
56831;BME280;42713;42.676;23.352;2023-03-20T14:41:39;94583.97;;;25.10;17.86
56831;BME280;42713;42.676;23.352;2023-03-20T14:44:32;94578.88;;;25.33;17.83
56831;BME280;42713;42.676;23.352;2023-03-20T14:49:52;94573.34;;;25.83;17.38
56831;BME280;42713;42.676;23.352;2023-03-20T14:52:25;94580.38;;;26.04;16.71
56831;BME280;42713;42.676;23.352;2023-03-20T14:54:54;94572.78;;;26.06;16.62
56831;BME280;42713;42.676;23.352;2023-03-20T14:57:31;94578.97;;;25.94;16.27
56831;BME280;42713;42.676;23.352;2023-03-20T14:59:58;94575.16;;;25.79;16.55
56831;BME280;42713;42.676;23.352;2023-03-20T15:02:33;94577.94;;;25.54;16.80
56831;BME280;42713;42.676;23.352;2023-03-20T15:04:59;94573.19;;;25.35;16.34
56831;BME280;42713;42.676;23.352;2023-03-20T15:07:29;94574.47;;;25.13;16.51
56831;BME280;42713;42.676;23.352;2023-03-20T15:09:57;94573.09;;;24.78;16.81
56831;BME280;42713;42.676;23.352;2023-03-20T15:12:27;94579.31;;;24.45;17.28
56831;BME280;42713;42.676;23.352;2023-03-20T15:14:58;94584.97;;;24.06;17.24